sensor_id;sensor_type;location;lat;lon;timestamp;P1;durP1;ratioP1;P2;durP2;ratioP2
20639;SDS011;10479;53.524;9.846;2023-09-18T00:01:36;17.52;;;7.65;;
20639;SDS011;10479;53.524;9.846;2023-09-18T00:04:01;11.10;;;6.82;;
20639;SDS011;10479;53.524;9.846;2023-09-18T00:06:27;11.25;;;7.07;;
20639;SDS011;10479;53.524;9.846;2023-09-18T00:08:52;11.43;;;6.88;;
20639;SDS011;10479;53.524;9.846;2023-09-18T00:11:19;10.82;;;6.90;;
20639;SDS011;10479;53.524;9.846;2023-09-18T00:13:44;10.70;;;6.80;;
20639;SDS011;10479;53.524;9.846;2023-09-18T00:16:09;10.27;;;6.60;;
20639;SDS011;10479;53.524;9.846;2023-09-18T00:18:35;9.82;;;6.78;;
20639;SDS011;10479;53.524;9.846;2023-09-18T00:21:01;10.50;;;6.53;;
20639;SDS011;10479;53.524;9.846;2023-09-18T00:23:26;9.73;;;6.78;;
20639;SDS011;10479;53.524;9.846;2023-09-18T00:25:51;10.88;;;6.97;;
20639;SDS011;10479;53.524;9.846;2023-09-18T00:28:17;10.25;;;6.32;;
20639;SDS011;10479;53.524;9.846;2023-09-18T00:30:46;11.30;;;6.60;;
20639;SDS011;10479;53.524;9.846;2023-09-18T00:33:12;10.52;;;6.47;;
20639;SDS011;10479;53.524;9.846;2023-09-18T00:35:38;9.80;;;6.55;;
20639;SDS011;10479;53.524;9.846;2023-09-18T00:38:05;10.90;;;6.53;;
20639;SDS011;10479;53.524;9.846;2023-09-18T00:40:32;9.82;;;6.70;;
20639;SDS011;10479;53.524;9.846;2023-09-18T00:42:58;8.77;;;6.30;;
20639;SDS011;10479;53.524;9.846;2023-09-18T00:45:23;11.18;;;6.70;;
20639;SDS011;10479;53.524;9.846;2023-09-18T00:47:49;10.23;;;6.15;;
20639;SDS011;10479;53.524;9.846;2023-09-18T00:50:15;9.88;;;6.80;;
20639;SDS011;10479;53.524;9.846;2023-09-18T00:52:41;10.00;;;6.93;;
20639;SDS011;10479;53.524;9.846;2023-09-18T00:55:07;10.20;;;6.95;;
20639;SDS011;10479;53.524;9.846;2023-09-18T00:57:33;10.75;;;6.72;;
20639;SDS011;10479;53.524;9.846;2023-09-18T00:59:58;8.50;;;6.18;;
20639;SDS011;10479;53.524;9.846;2023-09-18T01:02:24;10.77;;;6.25;;
20639;SDS011;10479;53.524;9.846;2023-09-18T01:04:49;9.07;;;6.28;;
20639;SDS011;10479;53.524;9.846;2023-09-18T01:07:15;11.10;;;6.82;;
20639;SDS011;10479;53.524;9.846;2023-09-18T01:09:40;9.75;;;6.47;;
20639;SDS011;10479;53.524;9.846;2023-09-18T01:14:58;10.60;;;6.43;;
20639;SDS011;10479;53.524;9.846;2023-09-18T01:17:29;8.82;;;6.07;;
20639;SDS011;10479;53.524;9.846;2023-09-18T01:19:56;10.20;;;6.10;;
20639;SDS011;10479;53.524;9.846;2023-09-18T01:22:21;13.93;;;6.75;;
20639;SDS011;10479;53.524;9.846;2023-09-18T01:24:47;10.25;;;6.40;;
20639;SDS011;10479;53.524;9.846;2023-09-18T01:27:14;10.23;;;6.80;;
20639;SDS011;10479;53.524;9.846;2023-09-18T01:29:43;11.52;;;7.30;;
20639;SDS011;10479;53.524;9.846;2023-09-18T01:32:09;11.65;;;6.63;;
20639;SDS011;10479;53.524;9.846;2023-09-18T01:34:36;9.10;;;6.50;;
20639;SDS011;10479;53.524;9.846;2023-09-18T01:37:04;11.77;;;7.60;;
20639;SDS011;10479;53.524;9.846;2023-09-18T01:39:31;12.25;;;7.38;;
20639;SDS011;10479;53.524;9.846;2023-09-18T01:42:01;9.60;;;6.72;;
20639;SDS011;10479;53.524;9.846;2023-09-18T01:44:28;11.70;;;6.72;;
20639;SDS011;10479;53.524;9.846;2023-09-18T01:46:54;11.38;;;6.30;;
20639;SDS011;10479;53.524;9.846;2023-09-18T01:49:37;9.25;;;6.43;;
20639;SDS011;10479;53.524;9.846;2023-09-18T01:52:04;12.30;;;6.97;;
20639;SDS011;10479;53.524;9.846;2023-09-18T01:54:31;12.13;;;7.00;;
20639;SDS011;10479;53.524;9.846;2023-09-18T01:56:57;9.52;;;6.70;;
20639;SDS011;10479;53.524;9.846;2023-09-18T01:59:22;12.15;;;7.10;;
20639;SDS011;10479;53.524;9.846;2023-09-18T02:01:49;12.55;;;7.30;;
20639;SDS011;10479;53.524;9.846;2023-09-18T02:04:15;10.48;;;7.20;;
20639;SDS011;10479;53.524;9.846;2023-09-18T02:06:40;10.65;;;7.07;;
20639;SDS011;10479;53.524;9.846;2023-09-18T02:09:06;10.25;;;7.30;;
20639;SDS011;10479;53.524;9.846;2023-09-18T02:11:34;11.38;;;7.40;;
20639;SDS011;10479;53.524;9.846;2023-09-18T02:14:10;12.10;;;7.38;;
20639;SDS011;10479;53.524;9.846;2023-09-18T02:16:36;10.93;;;7.68;;
20639;SDS011;10479;53.524;9.846;2023-09-18T02:19:03;12.38;;;7.18;;
20639;SDS011;10479;53.524;9.846;2023-09-18T02:21:29;12.77;;;7.22;;
20639;SDS011;10479;53.524;9.846;2023-09-18T02:23:54;12.18;;;7.53;;
20639;SDS011;10479;53.524;9.846;2023-09-18T02:26:20;11.70;;;7.43;;
20639;SDS011;10479;53.524;9.846;2023-09-18T02:28:46;10.60;;;7.22;;
20639;SDS011;10479;53.524;9.846;2023-09-18T02:31:12;11.10;;;6.72;;
20639;SDS011;10479;53.524;9.846;2023-09-18T02:33:37;12.88;;;7.55;;
20639;SDS011;10479;53.524;9.846;2023-09-18T02:36:03;12.98;;;7.05;;
20639;SDS011;10479;53.524;9.846;2023-09-18T02:38:29;9.90;;;6.90;;
20639;SDS011;10479;53.524;9.846;2023-09-18T02:40:57;12.65;;;7.40;;
20639;SDS011;10479;53.524;9.846;2023-09-18T02:43:23;10.07;;;7.32;;
20639;SDS011;10479;53.524;9.846;2023-09-18T02:45:49;11.85;;;7.35;;
20639;SDS011;10479;53.524;9.846;2023-09-18T02:48:15;10.00;;;7.07;;
20639;SDS011;10479;53.524;9.846;2023-09-18T02:50:41;9.68;;;6.50;;
20639;SDS011;10479;53.524;9.846;2023-09-18T02:53:07;11.10;;;6.97;;
20639;SDS011;10479;53.524;9.846;2023-09-18T02:55:34;11.27;;;7.15;;
20639;SDS011;10479;53.524;9.846;2023-09-18T02:57:59;9.38;;;6.43;;
20639;SDS011;10479;53.524;9.846;2023-09-18T03:00:25;12.38;;;7.28;;
20639;SDS011;10479;53.524;9.846;2023-09-18T03:02:50;11.45;;;7.18;;
20639;SDS011;10479;53.524;9.846;2023-09-18T03:05:16;16.15;;;7.75;;
20639;SDS011;10479;53.524;9.846;2023-09-18T03:07:41;10.02;;;7.13;;
20639;SDS011;10479;53.524;9.846;2023-09-18T03:10:07;10.88;;;7.65;;
20639;SDS011;10479;53.524;9.846;2023-09-18T03:12:32;13.25;;;7.10;;
20639;SDS011;10479;53.524;9.846;2023-09-18T03:14:58;11.90;;;7.13;;
20639;SDS011;10479;53.524;9.846;2023-09-18T03:17:24;10.55;;;7.53;;
20639;SDS011;10479;53.524;9.846;2023-09-18T03:19:49;11.52;;;7.13;;
20639;SDS011;10479;53.524;9.846;2023-09-18T03:22:15;10.25;;;6.88;;
20639;SDS011;10479;53.524;9.846;2023-09-18T03:24:41;12.38;;;6.97;;
20639;SDS011;10479;53.524;9.846;2023-09-18T03:27:06;11.88;;;7.32;;
20639;SDS011;10479;53.524;9.846;2023-09-18T03:29:32;9.95;;;6.90;;
20639;SDS011;10479;53.524;9.846;2023-09-18T03:31:57;9.95;;;6.93;;
20639;SDS011;10479;53.524;9.846;2023-09-18T03:34:24;12.18;;;6.90;;
20639;SDS011;10479;53.524;9.846;2023-09-18T03:36:52;11.15;;;6.93;;
20639;SDS011;10479;53.524;9.846;2023-09-18T03:39:18;11.20;;;7.30;;
20639;SDS011;10479;53.524;9.846;2023-09-18T03:41:44;9.65;;;6.90;;
20639;SDS011;10479;53.524;9.846;2023-09-18T03:44:09;9.00;;;6.72;;
20639;SDS011;10479;53.524;9.846;2023-09-18T03:46:35;12.18;;;7.13;;
20639;SDS011;10479;53.524;9.846;2023-09-18T03:49:01;12.10;;;7.25;;
20639;SDS011;10479;53.524;9.846;2023-09-18T03:51:28;10.85;;;6.97;;
20639;SDS011;10479;53.524;9.846;2023-09-18T03:53:54;11.05;;;7.30;;
20639;SDS011;10479;53.524;9.846;2023-09-18T03:56:20;11.48;;;7.78;;
20639;SDS011;10479;53.524;9.846;2023-09-18T03:58:47;10.20;;;7.63;;
20639;SDS011;10479;53.524;9.846;2023-09-18T04:01:15;10.88;;;7.80;;
20639;SDS011;10479;53.524;9.846;2023-09-18T04:03:41;13.77;;;7.65;;
20639;SDS011;10479;53.524;9.846;2023-09-18T04:06:06;11.57;;;8.05;;
20639;SDS011;10479;53.524;9.846;2023-09-18T04:08:32;12.43;;;7.78;;
20639;SDS011;10479;53.524;9.846;2023-09-18T04:10:57;11.48;;;7.70;;
20639;SDS011;10479;53.524;9.846;2023-09-18T04:13:23;12.13;;;7.68;;
20639;SDS011;10479;53.524;9.846;2023-09-18T04:15:49;14.13;;;7.40;;
20639;SDS011;10479;53.524;9.846;2023-09-18T04:18:14;12.68;;;7.82;;
20639;SDS011;10479;53.524;9.846;2023-09-18T04:20:40;15.38;;;8.05;;
20639;SDS011;10479;53.524;9.846;2023-09-18T04:25:46;13.32;;;8.07;;
20639;SDS011;10479;53.524;9.846;2023-09-18T04:28:12;16.02;;;7.25;;
20639;SDS011;10479;53.524;9.846;2023-09-18T04:30:38;10.55;;;7.50;;
20639;SDS011;10479;53.524;9.846;2023-09-18T04:33:04;11.60;;;7.90;;
20639;SDS011;10479;53.524;9.846;2023-09-18T04:35:29;11.68;;;7.90;;
20639;SDS011;10479;53.524;9.846;2023-09-18T04:37:59;12.05;;;8.45;;
20639;SDS011;10479;53.524;9.846;2023-09-18T04:40:25;12.40;;;8.07;;
20639;SDS011;10479;53.524;9.846;2023-09-18T04:42:51;13.52;;;7.95;;
20639;SDS011;10479;53.524;9.846;2023-09-18T04:45:17;11.20;;;8.05;;
20639;SDS011;10479;53.524;9.846;2023-09-18T04:47:43;13.90;;;7.78;;
20639;SDS011;10479;53.524;9.846;2023-09-18T04:50:09;11.98;;;7.70;;
20639;SDS011;10479;53.524;9.846;2023-09-18T04:52:38;12.35;;;8.05;;
20639;SDS011;10479;53.524;9.846;2023-09-18T04:55:05;12.60;;;8.02;;
20639;SDS011;10479;53.524;9.846;2023-09-18T04:57:31;12.05;;;7.97;;
20639;SDS011;10479;53.524;9.846;2023-09-18T04:59:57;12.82;;;8.10;;
20639;SDS011;10479;53.524;9.846;2023-09-18T05:02:22;10.68;;;8.02;;
20639;SDS011;10479;53.524;9.846;2023-09-18T05:04:50;11.57;;;8.02;;
20639;SDS011;10479;53.524;9.846;2023-09-18T05:07:16;19.10;;;8.73;;
20639;SDS011;10479;53.524;9.846;2023-09-18T05:09:41;14.05;;;8.98;;
20639;SDS011;10479;53.524;9.846;2023-09-18T05:12:08;20.20;;;8.35;;
20639;SDS011;10479;53.524;9.846;2023-09-18T05:14:39;13.23;;;8.95;;
20639;SDS011;10479;53.524;9.846;2023-09-18T05:17:05;12.57;;;8.48;;
20639;SDS011;10479;53.524;9.846;2023-09-18T05:19:31;14.38;;;8.90;;
20639;SDS011;10479;53.524;9.846;2023-09-18T05:21:56;11.90;;;8.50;;
20639;SDS011;10479;53.524;9.846;2023-09-18T05:24:22;14.95;;;8.23;;
20639;SDS011;10479;53.524;9.846;2023-09-18T05:26:52;13.18;;;8.02;;
20639;SDS011;10479;53.524;9.846;2023-09-18T05:29:18;12.55;;;8.43;;
20639;SDS011;10479;53.524;9.846;2023-09-18T05:31:44;11.43;;;7.95;;
20639;SDS011;10479;53.524;9.846;2023-09-18T05:34:10;13.13;;;7.55;;
20639;SDS011;10479;53.524;9.846;2023-09-18T05:36:36;15.32;;;8.07;;
20639;SDS011;10479;53.524;9.846;2023-09-18T05:39:02;12.55;;;8.13;;
20639;SDS011;10479;53.524;9.846;2023-09-18T05:41:28;11.00;;;7.90;;
20639;SDS011;10479;53.524;9.846;2023-09-18T05:43:54;12.18;;;7.57;;
20639;SDS011;10479;53.524;9.846;2023-09-18T05:46:20;13.40;;;8.40;;
20639;SDS011;10479;53.524;9.846;2023-09-18T05:48:46;13.13;;;8.18;;
20639;SDS011;10479;53.524;9.846;2023-09-18T05:51:11;11.40;;;7.80;;
20639;SDS011;10479;53.524;9.846;2023-09-18T05:53:36;10.80;;;7.18;;
20639;SDS011;10479;53.524;9.846;2023-09-18T05:56:03;11.75;;;7.82;;
20639;SDS011;10479;53.524;9.846;2023-09-18T05:58:32;13.82;;;7.35;;
20639;SDS011;10479;53.524;9.846;2023-09-18T06:01:00;12.30;;;6.95;;
20639;SDS011;10479;53.524;9.846;2023-09-18T06:03:26;11.60;;;7.10;;
20639;SDS011;10479;53.524;9.846;2023-09-18T06:05:52;12.73;;;7.80;;
20639;SDS011;10479;53.524;9.846;2023-09-18T06:08:17;14.20;;;7.90;;
20639;SDS011;10479;53.524;9.846;2023-09-18T06:10:44;12.43;;;7.53;;
20639;SDS011;10479;53.524;9.846;2023-09-18T06:13:10;16.00;;;6.90;;
20639;SDS011;10479;53.524;9.846;2023-09-18T06:15:35;13.63;;;7.32;;
20639;SDS011;10479;53.524;9.846;2023-09-18T06:18:01;18.80;;;7.10;;
20639;SDS011;10479;53.524;9.846;2023-09-18T06:20:26;15.73;;;6.93;;
20639;SDS011;10479;53.524;9.846;2023-09-18T06:22:52;16.67;;;7.00;;
20639;SDS011;10479;53.524;9.846;2023-09-18T06:25:17;12.05;;;6.97;;
20639;SDS011;10479;53.524;9.846;2023-09-18T06:27:43;12.13;;;7.00;;
20639;SDS011;10479;53.524;9.846;2023-09-18T06:30:08;14.20;;;7.63;;
20639;SDS011;10479;53.524;9.846;2023-09-18T06:32:34;12.27;;;7.13;;
20639;SDS011;10479;53.524;9.846;2023-09-18T06:35:02;11.07;;;7.68;;
20639;SDS011;10479;53.524;9.846;2023-09-18T06:37:27;13.02;;;7.10;;
20639;SDS011;10479;53.524;9.846;2023-09-18T06:39:53;10.95;;;6.95;;
20639;SDS011;10479;53.524;9.846;2023-09-18T06:42:18;12.77;;;8.00;;
20639;SDS011;10479;53.524;9.846;2023-09-18T06:44:44;11.93;;;7.50;;
20639;SDS011;10479;53.524;9.846;2023-09-18T06:47:10;12.40;;;7.95;;
20639;SDS011;10479;53.524;9.846;2023-09-18T06:49:35;14.55;;;8.25;;
20639;SDS011;10479;53.524;9.846;2023-09-18T06:52:01;14.57;;;7.53;;
20639;SDS011;10479;53.524;9.846;2023-09-18T06:54:26;14.65;;;7.32;;
20639;SDS011;10479;53.524;9.846;2023-09-18T06:56:51;15.13;;;7.65;;
20639;SDS011;10479;53.524;9.846;2023-09-18T06:59:17;19.23;;;7.68;;
20639;SDS011;10479;53.524;9.846;2023-09-18T07:01:43;12.02;;;6.82;;
20639;SDS011;10479;53.524;9.846;2023-09-18T07:04:09;11.98;;;6.78;;
20639;SDS011;10479;53.524;9.846;2023-09-18T07:06:34;10.52;;;7.85;;
20639;SDS011;10479;53.524;9.846;2023-09-18T07:09:00;13.38;;;7.50;;
20639;SDS011;10479;53.524;9.846;2023-09-18T07:11:25;9.95;;;6.50;;
20639;SDS011;10479;53.524;9.846;2023-09-18T07:13:51;11.90;;;7.05;;
20639;SDS011;10479;53.524;9.846;2023-09-18T07:16:16;10.98;;;6.88;;
20639;SDS011;10479;53.524;9.846;2023-09-18T07:18:42;11.65;;;6.95;;
20639;SDS011;10479;53.524;9.846;2023-09-18T07:21:08;12.70;;;6.85;;
20639;SDS011;10479;53.524;9.846;2023-09-18T07:23:34;10.27;;;6.35;;
20639;SDS011;10479;53.524;9.846;2023-09-18T07:26:02;10.52;;;6.75;;
20639;SDS011;10479;53.524;9.846;2023-09-18T07:28:28;11.65;;;6.78;;
20639;SDS011;10479;53.524;9.846;2023-09-18T07:30:53;10.23;;;7.07;;
20639;SDS011;10479;53.524;9.846;2023-09-18T07:33:18;9.88;;;6.30;;
20639;SDS011;10479;53.524;9.846;2023-09-18T07:35:48;13.68;;;7.28;;
20639;SDS011;10479;53.524;9.846;2023-09-18T07:38:16;9.30;;;6.85;;
20639;SDS011;10479;53.524;9.846;2023-09-18T07:40:44;10.57;;;6.53;;
20639;SDS011;10479;53.524;9.846;2023-09-18T07:43:09;14.65;;;6.82;;
20639;SDS011;10479;53.524;9.846;2023-09-18T07:45:35;11.73;;;6.82;;
20639;SDS011;10479;53.524;9.846;2023-09-18T07:48:00;13.00;;;6.60;;
20639;SDS011;10479;53.524;9.846;2023-09-18T07:50:25;9.68;;;6.72;;
20639;SDS011;10479;53.524;9.846;2023-09-18T07:52:52;17.92;;;7.55;;
20639;SDS011;10479;53.524;9.846;2023-09-18T07:55:17;10.63;;;6.28;;
20639;SDS011;10479;53.524;9.846;2023-09-18T07:57:42;13.55;;;7.28;;
20639;SDS011;10479;53.524;9.846;2023-09-18T08:00:10;13.00;;;6.95;;
20639;SDS011;10479;53.524;9.846;2023-09-18T08:02:40;10.40;;;6.60;;
20639;SDS011;10479;53.524;9.846;2023-09-18T08:05:07;13.55;;;7.20;;
20639;SDS011;10479;53.524;9.846;2023-09-18T08:07:33;11.32;;;6.80;;
20639;SDS011;10479;53.524;9.846;2023-09-18T08:10:02;9.38;;;6.45;;
20639;SDS011;10479;53.524;9.846;2023-09-18T08:12:31;9.77;;;6.57;;
20639;SDS011;10479;53.524;9.846;2023-09-18T08:14:57;10.30;;;6.80;;
20639;SDS011;10479;53.524;9.846;2023-09-18T08:17:24;11.93;;;7.20;;
20639;SDS011;10479;53.524;9.846;2023-09-18T08:19:50;10.70;;;6.70;;
20639;SDS011;10479;53.524;9.846;2023-09-18T08:22:17;12.05;;;6.85;;
20639;SDS011;10479;53.524;9.846;2023-09-18T08:24:44;13.73;;;6.63;;
20639;SDS011;10479;53.524;9.846;2023-09-18T08:27:11;10.85;;;6.85;;
20639;SDS011;10479;53.524;9.846;2023-09-18T08:29:38;11.60;;;6.80;;
20639;SDS011;10479;53.524;9.846;2023-09-18T08:32:04;10.50;;;6.75;;
20639;SDS011;10479;53.524;9.846;2023-09-18T08:34:29;11.90;;;7.00;;
20639;SDS011;10479;53.524;9.846;2023-09-18T08:36:54;10.07;;;6.75;;
20639;SDS011;10479;53.524;9.846;2023-09-18T08:39:20;11.15;;;6.65;;
20639;SDS011;10479;53.524;9.846;2023-09-18T08:41:45;14.55;;;6.63;;
20639;SDS011;10479;53.524;9.846;2023-09-18T08:44:16;9.75;;;6.32;;
20639;SDS011;10479;53.524;9.846;2023-09-18T08:46:44;12.13;;;6.35;;
20639;SDS011;10479;53.524;9.846;2023-09-18T08:49:09;12.30;;;6.47;;
20639;SDS011;10479;53.524;9.846;2023-09-18T08:51:36;13.27;;;7.68;;
20639;SDS011;10479;53.524;9.846;2023-09-18T08:54:02;11.35;;;6.10;;
20639;SDS011;10479;53.524;9.846;2023-09-18T08:56:29;12.45;;;6.47;;
20639;SDS011;10479;53.524;9.846;2023-09-18T08:58:56;9.55;;;6.22;;
20639;SDS011;10479;53.524;9.846;2023-09-18T09:01:22;9.18;;;6.05;;
20639;SDS011;10479;53.524;9.846;2023-09-18T09:03:47;11.15;;;6.05;;
20639;SDS011;10479;53.524;9.846;2023-09-18T09:06:13;11.82;;;5.93;;
20639;SDS011;10479;53.524;9.846;2023-09-18T09:08:39;9.50;;;5.80;;
20639;SDS011;10479;53.524;9.846;2023-09-18T09:11:05;11.27;;;5.28;;
20639;SDS011;10479;53.524;9.846;2023-09-18T09:13:32;9.57;;;5.25;;
20639;SDS011;10479;53.524;9.846;2023-09-18T09:15:58;9.15;;;5.40;;
20639;SDS011;10479;53.524;9.846;2023-09-18T09:18:27;10.27;;;5.15;;
20639;SDS011;10479;53.524;9.846;2023-09-18T09:20:58;7.53;;;5.20;;
20639;SDS011;10479;53.524;9.846;2023-09-18T09:23:30;10.07;;;4.90;;
20639;SDS011;10479;53.524;9.846;2023-09-18T09:26:17;6.80;;;4.30;;
20639;SDS011;10479;53.524;9.846;2023-09-18T09:28:44;11.73;;;4.63;;
20639;SDS011;10479;53.524;9.846;2023-09-18T09:31:10;7.57;;;4.25;;
20639;SDS011;10479;53.524;9.846;2023-09-18T09:33:37;7.05;;;4.10;;
20639;SDS011;10479;53.524;9.846;2023-09-18T09:36:06;5.90;;;3.83;;
20639;SDS011;10479;53.524;9.846;2023-09-18T09:38:32;7.05;;;3.70;;
20639;SDS011;10479;53.524;9.846;2023-09-18T09:41:01;9.23;;;4.00;;
20639;SDS011;10479;53.524;9.846;2023-09-18T09:43:28;14.63;;;4.25;;
20639;SDS011;10479;53.524;9.846;2023-09-18T09:45:59;7.25;;;3.55;;
20639;SDS011;10479;53.524;9.846;2023-09-18T09:48:25;10.50;;;4.18;;
20639;SDS011;10479;53.524;9.846;2023-09-18T09:50:51;8.88;;;4.20;;
20639;SDS011;10479;53.524;9.846;2023-09-18T09:53:18;7.43;;;3.60;;
20639;SDS011;10479;53.524;9.846;2023-09-18T09:55:44;8.45;;;4.03;;
20639;SDS011;10479;53.524;9.846;2023-09-18T09:58:10;7.47;;;3.75;;
20639;SDS011;10479;53.524;9.846;2023-09-18T10:00:41;9.23;;;4.30;;
20639;SDS011;10479;53.524;9.846;2023-09-18T10:03:10;8.18;;;3.53;;
20639;SDS011;10479;53.524;9.846;2023-09-18T10:05:37;8.95;;;3.80;;
20639;SDS011;10479;53.524;9.846;2023-09-18T10:08:08;9.15;;;4.40;;
20639;SDS011;10479;53.524;9.846;2023-09-18T10:10:48;7.43;;;3.60;;
20639;SDS011;10479;53.524;9.846;2023-09-18T10:16:06;12.85;;;4.53;;
20639;SDS011;10479;53.524;9.846;2023-09-18T10:18:44;7.85;;;3.90;;
20639;SDS011;10479;53.524;9.846;2023-09-18T10:24:04;9.95;;;4.10;;
20639;SDS011;10479;53.524;9.846;2023-09-18T10:29:21;9.55;;;3.88;;
20639;SDS011;10479;53.524;9.846;2023-09-18T10:31:48;8.70;;;3.90;;
20639;SDS011;10479;53.524;9.846;2023-09-18T10:34:15;6.25;;;3.80;;
20639;SDS011;10479;53.524;9.846;2023-09-18T10:36:41;9.48;;;4.30;;
20639;SDS011;10479;53.524;9.846;2023-09-18T10:39:09;9.38;;;3.90;;
20639;SDS011;10479;53.524;9.846;2023-09-18T10:41:37;8.60;;;3.92;;
20639;SDS011;10479;53.524;9.846;2023-09-18T10:44:04;9.82;;;4.07;;
20639;SDS011;10479;53.524;9.846;2023-09-18T10:46:32;9.40;;;3.88;;
20639;SDS011;10479;53.524;9.846;2023-09-18T10:48:58;7.80;;;3.90;;
20639;SDS011;10479;53.524;9.846;2023-09-18T10:51:24;7.80;;;4.00;;
20639;SDS011;10479;53.524;9.846;2023-09-18T10:53:50;7.80;;;3.92;;
20639;SDS011;10479;53.524;9.846;2023-09-18T10:56:19;9.80;;;4.60;;
20639;SDS011;10479;53.524;9.846;2023-09-18T10:58:45;10.20;;;4.53;;
20639;SDS011;10479;53.524;9.846;2023-09-18T11:01:13;9.60;;;3.90;;
20639;SDS011;10479;53.524;9.846;2023-09-18T11:03:39;8.70;;;3.90;;
20639;SDS011;10479;53.524;9.846;2023-09-18T11:06:15;7.38;;;3.50;;
20639;SDS011;10479;53.524;9.846;2023-09-18T11:08:43;8.73;;;3.88;;
20639;SDS011;10479;53.524;9.846;2023-09-18T11:11:11;8.32;;;3.85;;
20639;SDS011;10479;53.524;9.846;2023-09-18T11:13:42;12.07;;;3.85;;
20639;SDS011;10479;53.524;9.846;2023-09-18T11:21:25;9.38;;;3.45;;
20639;SDS011;10479;53.524;9.846;2023-09-18T11:26:24;8.57;;;3.85;;
20639;SDS011;10479;53.524;9.846;2023-09-18T11:28:53;10.25;;;3.85;;
20639;SDS011;10479;53.524;9.846;2023-09-18T14:57:54;7.97;;;2.55;;
20639;SDS011;10479;53.524;9.846;2023-09-18T15:00:19;5.00;;;2.28;;
20639;SDS011;10479;53.524;9.846;2023-09-18T15:02:45;4.78;;;2.38;;
20639;SDS011;10479;53.524;9.846;2023-09-18T15:05:10;7.53;;;2.22;;
20639;SDS011;10479;53.524;9.846;2023-09-18T15:07:37;6.72;;;2.30;;
20639;SDS011;10479;53.524;9.846;2023-09-18T15:10:03;6.47;;;2.65;;
20639;SDS011;10479;53.524;9.846;2023-09-18T15:12:30;3.97;;;1.80;;
20639;SDS011;10479;53.524;9.846;2023-09-18T15:14:56;5.85;;;2.70;;
20639;SDS011;10479;53.524;9.846;2023-09-18T15:17:22;6.03;;;2.63;;
20639;SDS011;10479;53.524;9.846;2023-09-18T15:19:47;8.02;;;2.30;;
20639;SDS011;10479;53.524;9.846;2023-09-18T15:22:19;5.93;;;1.98;;
20639;SDS011;10479;53.524;9.846;2023-09-18T15:24:44;3.88;;;1.73;;
20639;SDS011;10479;53.524;9.846;2023-09-18T15:27:10;10.68;;;2.53;;
20639;SDS011;10479;53.524;9.846;2023-09-18T15:29:36;8.25;;;2.05;;
20639;SDS011;10479;53.524;9.846;2023-09-18T15:32:01;7.03;;;2.20;;
20639;SDS011;10479;53.524;9.846;2023-09-18T15:34:27;6.75;;;1.70;;
20639;SDS011;10479;53.524;9.846;2023-09-18T15:36:53;4.43;;;1.88;;
20639;SDS011;10479;53.524;9.846;2023-09-18T15:39:21;5.95;;;2.20;;
20639;SDS011;10479;53.524;9.846;2023-09-18T15:41:46;11.07;;;2.03;;
20639;SDS011;10479;53.524;9.846;2023-09-18T15:44:11;3.90;;;1.80;;
20639;SDS011;10479;53.524;9.846;2023-09-18T15:46:39;9.18;;;2.00;;
20639;SDS011;10479;53.524;9.846;2023-09-18T15:49:04;4.93;;;1.75;;
20639;SDS011;10479;53.524;9.846;2023-09-18T15:51:30;4.03;;;1.85;;
20639;SDS011;10479;53.524;9.846;2023-09-18T15:53:55;4.45;;;1.75;;
20639;SDS011;10479;53.524;9.846;2023-09-18T15:56:20;8.48;;;2.15;;
20639;SDS011;10479;53.524;9.846;2023-09-18T15:58:46;4.82;;;1.90;;
20639;SDS011;10479;53.524;9.846;2023-09-18T16:01:13;4.60;;;1.80;;
20639;SDS011;10479;53.524;9.846;2023-09-18T16:03:40;8.15;;;1.77;;
20639;SDS011;10479;53.524;9.846;2023-09-18T16:06:13;5.22;;;2.00;;
20639;SDS011;10479;53.524;9.846;2023-09-18T16:08:39;7.25;;;2.45;;
20639;SDS011;10479;53.524;9.846;2023-09-18T16:11:04;5.78;;;2.00;;
20639;SDS011;10479;53.524;9.846;2023-09-18T16:13:30;4.68;;;1.90;;
20639;SDS011;10479;53.524;9.846;2023-09-18T16:15:55;8.95;;;2.00;;
20639;SDS011;10479;53.524;9.846;2023-09-18T16:18:21;5.57;;;2.00;;
20639;SDS011;10479;53.524;9.846;2023-09-18T16:20:47;4.90;;;1.75;;
20639;SDS011;10479;53.524;9.846;2023-09-18T16:23:12;6.07;;;2.03;;
20639;SDS011;10479;53.524;9.846;2023-09-18T16:25:38;6.82;;;1.90;;
20639;SDS011;10479;53.524;9.846;2023-09-18T16:28:03;4.93;;;1.95;;
20639;SDS011;10479;53.524;9.846;2023-09-18T16:30:31;4.18;;;1.73;;
20639;SDS011;10479;53.524;9.846;2023-09-18T16:32:56;7.28;;;1.88;;
20639;SDS011;10479;53.524;9.846;2023-09-18T16:35:22;5.45;;;1.95;;
20639;SDS011;10479;53.524;9.846;2023-09-18T16:37:48;4.53;;;2.13;;
20639;SDS011;10479;53.524;9.846;2023-09-18T16:40:13;6.13;;;1.77;;
20639;SDS011;10479;53.524;9.846;2023-09-18T16:42:39;5.13;;;2.10;;
20639;SDS011;10479;53.524;9.846;2023-09-18T16:45:04;8.38;;;2.13;;
20639;SDS011;10479;53.524;9.846;2023-09-18T16:47:31;7.75;;;1.95;;
20639;SDS011;10479;53.524;9.846;2023-09-18T16:49:57;5.35;;;1.90;;
20639;SDS011;10479;53.524;9.846;2023-09-18T16:52:23;8.13;;;1.90;;
20639;SDS011;10479;53.524;9.846;2023-09-18T16:54:49;5.97;;;1.80;;
20639;SDS011;10479;53.524;9.846;2023-09-18T16:57:14;4.93;;;1.83;;
20639;SDS011;10479;53.524;9.846;2023-09-18T16:59:40;6.07;;;2.00;;
20639;SDS011;10479;53.524;9.846;2023-09-18T17:02:06;5.15;;;2.00;;
20639;SDS011;10479;53.524;9.846;2023-09-18T17:04:33;4.95;;;1.83;;
20639;SDS011;10479;53.524;9.846;2023-09-18T17:06:59;3.70;;;1.85;;
20639;SDS011;10479;53.524;9.846;2023-09-18T17:09:25;6.25;;;1.90;;
20639;SDS011;10479;53.524;9.846;2023-09-18T17:11:50;10.57;;;2.00;;
20639;SDS011;10479;53.524;9.846;2023-09-18T17:14:16;5.93;;;2.08;;
20639;SDS011;10479;53.524;9.846;2023-09-18T17:16:41;7.25;;;2.78;;
20639;SDS011;10479;53.524;9.846;2023-09-18T17:19:07;5.38;;;2.00;;
20639;SDS011;10479;53.524;9.846;2023-09-18T17:21:33;4.53;;;1.85;;
20639;SDS011;10479;53.524;9.846;2023-09-18T17:23:58;4.03;;;1.50;;
20639;SDS011;10479;53.524;9.846;2023-09-18T17:26:24;8.98;;;2.05;;
20639;SDS011;10479;53.524;9.846;2023-09-18T17:28:52;6.85;;;2.30;;
20639;SDS011;10479;53.524;9.846;2023-09-18T17:31:17;6.07;;;1.80;;
20639;SDS011;10479;53.524;9.846;2023-09-18T17:33:44;3.95;;;1.58;;
20639;SDS011;10479;53.524;9.846;2023-09-18T17:36:10;5.07;;;1.80;;
20639;SDS011;10479;53.524;9.846;2023-09-18T17:38:36;6.28;;;1.60;;
20639;SDS011;10479;53.524;9.846;2023-09-18T17:41:02;4.35;;;1.75;;
20639;SDS011;10479;53.524;9.846;2023-09-18T17:43:29;6.72;;;1.77;;
20639;SDS011;10479;53.524;9.846;2023-09-18T17:45:56;7.18;;;2.03;;
20639;SDS011;10479;53.524;9.846;2023-09-18T17:48:22;6.35;;;1.77;;
20639;SDS011;10479;53.524;9.846;2023-09-18T17:50:47;4.25;;;1.98;;
20639;SDS011;10479;53.524;9.846;2023-09-18T17:53:13;20.92;;;2.45;;
20639;SDS011;10479;53.524;9.846;2023-09-18T17:55:39;5.43;;;1.95;;
20639;SDS011;10479;53.524;9.846;2023-09-18T17:58:06;10.20;;;2.20;;
20639;SDS011;10479;53.524;9.846;2023-09-18T18:00:31;4.95;;;2.20;;
20639;SDS011;10479;53.524;9.846;2023-09-18T18:02:57;5.10;;;1.67;;
20639;SDS011;10479;53.524;9.846;2023-09-18T18:05:22;4.10;;;1.80;;
20639;SDS011;10479;53.524;9.846;2023-09-18T18:07:49;10.43;;;2.10;;
20639;SDS011;10479;53.524;9.846;2023-09-18T18:10:14;4.18;;;1.70;;
20639;SDS011;10479;53.524;9.846;2023-09-18T18:12:40;6.68;;;1.90;;
20639;SDS011;10479;53.524;9.846;2023-09-18T18:15:06;4.70;;;2.08;;
20639;SDS011;10479;53.524;9.846;2023-09-18T18:17:34;6.85;;;1.92;;
20639;SDS011;10479;53.524;9.846;2023-09-18T18:19:59;5.18;;;1.92;;
20639;SDS011;10479;53.524;9.846;2023-09-18T18:22:31;4.22;;;1.88;;
20639;SDS011;10479;53.524;9.846;2023-09-18T18:24:57;6.38;;;1.73;;